PWSweather.com
Personal Weather Stations
Station Observations
LONGSUTTON
Long SuttonGB

Long SuttonGB

Lat: 52.776537, Lon: 0.113883

Elevation: 30

Station Type: Davis Vantage Pro 2

http://www.wx-watch.co.uk

Latest ConditionsUpdated 7:48:22 AM GMT Thursday, Dec 12, 2019
Currently Today's Max Today's Min Today's Average
Temperature 34.2°F1.2°C 34.3°F1.3°C 32.3°F0.2°C 33.2°F0.7°C
Dew Point 27.4°F-2.6°C 27.7°F-2.4°C 25.9°F-3.4°C 26.7°F-2.9°C
Winds 2.0 mph SE3.2 kmh SE 8.0 mph -12.9 kmh - - 3.6 mph 5.8 kmh
Wind Gusts 10.0 mph16.1 kmh 13.0 mph20.9 kmh - -
Humidity 76% 78% 76% 77%
Pressure 29.45 in997.3 mb 29.61 in1002.7 mb 29.44 in997.0 mb -
Hour Temp Dew Point Humidity Winds Wind Gusts Pressure Precip Precip Rate Daily Precip Total
07:48 AM 34.2°F1.2°C 27.4°F-2.6°C 76% 2.0 mph SE3.2 kmh SE 10.0 mph16.1 kmh 29.45 in997.3 mb 0.00 in0.0 mm 0.00 in0.0 mm 0.00 in0.0 mm
07:43 AM 34.1°F1.2°C 27.3°F-2.6°C 76% 3.0 mph S4.8 kmh S 10.0 mph16.1 kmh 29.44 in997.0 mb 0.00 in0.0 mm 0.00 in0.0 mm 0.00 in0.0 mm
07:38 AM 34.1°F1.2°C 27.3°F-2.6°C 76% 2.0 mph SSE3.2 kmh SSE 10.0 mph16.1 kmh 29.44 in997.0 mb 0.00 in0.0 mm 0.00 in0.0 mm 0.00 in0.0 mm
07:33 AM 34.0°F1.1°C 27.2°F-2.7°C 76% 7.0 mph SSE11.3 kmh SSE 10.0 mph16.1 kmh 29.45 in997.3 mb 0.00 in0.0 mm 0.00 in0.0 mm 0.00 in0.0 mm
07:28 AM 34.2°F1.2°C 27.4°F-2.6°C 76% 6.0 mph SSE9.7 kmh SSE 7.0 mph11.3 kmh 29.45 in997.3 mb 0.00 in0.0 mm 0.00 in0.0 mm 0.00 in0.0 mm
07:23 AM 34.3°F1.3°C 27.5°F-2.5°C 76% 4.0 mph SE6.4 kmh SE 10.0 mph16.1 kmh 29.46 in997.6 mb 0.00 in0.0 mm 0.00 in0.0 mm 0.00 in0.0 mm
07:18 AM 34.2°F1.2°C 27.4°F-2.6°C 76% 4.0 mph SE6.4 kmh SE 10.0 mph16.1 kmh 29.45 in997.3 mb 0.00 in0.0 mm 0.00 in0.0 mm 0.00 in0.0 mm
07:13 AM 34.1°F1.2°C 27.3°F-2.6°C 76% 6.0 mph SSE9.7 kmh SSE 10.0 mph16.1 kmh 29.46 in997.6 mb 0.00 in0.0 mm 0.00 in0.0 mm 0.00 in0.0 mm
07:08 AM 34.0°F1.1°C 27.2°F-2.7°C 76% 5.0 mph SE8.0 kmh SE 10.0 mph16.1 kmh 29.46 in997.6 mb 0.00 in0.0 mm 0.00 in0.0 mm 0.00 in0.0 mm
07:03 AM 33.8°F1.0°C 27.4°F-2.6°C 77% 5.0 mph SSE8.0 kmh SSE 10.0 mph16.1 kmh 29.46 in997.6 mb 0.00 in0.0 mm 0.00 in0.0 mm 0.00 in0.0 mm
06:58 AM 33.7°F0.9°C 27.0°F-2.8°C 76% 4.0 mph S6.4 kmh S 10.0 mph16.1 kmh 29.47 in998.0 mb 0.00 in0.0 mm 0.00 in0.0 mm 0.00 in0.0 mm
06:53 AM 33.7°F0.9°C 27.3°F-2.6°C 77% 3.0 mph S4.8 kmh S 13.0 mph20.9 kmh 29.47 in998.0 mb 0.00 in0.0 mm 0.00 in0.0 mm 0.00 in0.0 mm
06:48 AM 33.6°F0.9°C 27.2°F-2.7°C 77% 6.0 mph S9.7 kmh S 13.0 mph20.9 kmh 29.48 in998.3 mb 0.00 in0.0 mm 0.00 in0.0 mm 0.00 in0.0 mm
06:43 AM 33.6°F0.9°C 26.9°F-2.8°C 76% 4.0 mph SSE6.4 kmh SSE 13.0 mph20.9 kmh 29.48 in998.3 mb 0.00 in0.0 mm 0.00 in0.0 mm 0.00 in0.0 mm
06:38 AM 33.6°F0.9°C 26.9°F-2.8°C 76% 5.0 mph S8.0 kmh S 13.0 mph20.9 kmh 29.48 in998.3 mb 0.00 in0.0 mm 0.00 in0.0 mm 0.00 in0.0 mm
06:33 AM 33.6°F0.9°C 27.2°F-2.7°C 77% 4.0 mph SSE6.4 kmh SSE 13.0 mph20.9 kmh 29.48 in998.3 mb 0.00 in0.0 mm 0.00 in0.0 mm 0.00 in0.0 mm
06:28 AM 33.6°F0.9°C 27.2°F-2.7°C 77% 1.0 mph S1.6 kmh S 13.0 mph20.9 kmh 29.48 in998.3 mb 0.00 in0.0 mm 0.00 in0.0 mm 0.00 in0.0 mm
06:23 AM 33.5°F0.8°C 27.1°F-2.7°C 77% 4.0 mph SSE6.4 kmh SSE 10.0 mph16.1 kmh 29.48 in998.3 mb 0.00 in0.0 mm 0.00 in0.0 mm 0.00 in0.0 mm
06:18 AM 33.5°F0.8°C 27.1°F-2.7°C 77% 7.0 mph S11.3 kmh S 10.0 mph16.1 kmh 29.49 in998.6 mb 0.00 in0.0 mm 0.00 in0.0 mm 0.00 in0.0 mm
06:13 AM 33.4°F0.8°C 27.0°F-2.8°C 77% 3.0 mph S4.8 kmh S 10.0 mph16.1 kmh 29.49 in998.6 mb 0.00 in0.0 mm 0.00 in0.0 mm 0.00 in0.0 mm
06:08 AM 33.3°F0.7°C 26.9°F-2.8°C 77% 4.0 mph S6.4 kmh S 9.0 mph14.5 kmh 29.49 in998.6 mb 0.00 in0.0 mm 0.00 in0.0 mm 0.00 in0.0 mm
06:03 AM 33.3°F0.7°C 26.9°F-2.8°C 77% 4.0 mph S6.4 kmh S 9.0 mph14.5 kmh 29.49 in998.6 mb 0.00 in0.0 mm 0.00 in0.0 mm 0.00 in0.0 mm
05:58 AM 33.4°F0.8°C 27.0°F-2.8°C 77% 3.0 mph S4.8 kmh S 9.0 mph14.5 kmh 29.50 in999.0 mb 0.00 in0.0 mm 0.00 in0.0 mm 0.00 in0.0 mm
05:53 AM 33.4°F0.8°C 27.0°F-2.8°C 77% 2.0 mph SSE3.2 kmh SSE 9.0 mph14.5 kmh 29.50 in999.0 mb 0.00 in0.0 mm 0.00 in0.0 mm 0.00 in0.0 mm
05:48 AM 33.4°F0.8°C 27.0°F-2.8°C 77% 4.0 mph S6.4 kmh S 9.0 mph14.5 kmh 29.50 in999.0 mb 0.00 in0.0 mm 0.00 in0.0 mm 0.00 in0.0 mm
05:43 AM 33.4°F0.8°C 27.0°F-2.8°C 77% 7.0 mph S11.3 kmh S 9.0 mph14.5 kmh 29.50 in999.0 mb 0.00 in0.0 mm 0.00 in0.0 mm 0.00 in0.0 mm
05:38 AM 33.4°F0.8°C 27.0°F-2.8°C 77% 6.0 mph S9.7 kmh S 9.0 mph14.5 kmh 29.50 in999.0 mb 0.00 in0.0 mm 0.00 in0.0 mm 0.00 in0.0 mm
05:33 AM 33.3°F0.7°C 26.9°F-2.8°C 77% 2.0 mph S3.2 kmh S 9.0 mph14.5 kmh 29.50 in999.0 mb 0.00 in0.0 mm 0.00 in0.0 mm 0.00 in0.0 mm
05:28 AM 33.3°F0.7°C 26.9°F-2.8°C 77% 5.0 mph SSE8.0 kmh SSE 9.0 mph14.5 kmh 29.50 in999.0 mb 0.00 in0.0 mm 0.00 in0.0 mm 0.00 in0.0 mm
05:23 AM 33.2°F0.7°C 26.8°F-2.9°C 77% 7.0 mph S11.3 kmh S 10.0 mph16.1 kmh 29.50 in999.0 mb 0.00 in0.0 mm 0.00 in0.0 mm 0.00 in0.0 mm
05:18 AM 33.1°F0.6°C 26.7°F-2.9°C 77% 4.0 mph S6.4 kmh S 10.0 mph16.1 kmh 29.51 in999.3 mb 0.00 in0.0 mm 0.00 in0.0 mm 0.00 in0.0 mm
05:13 AM 33.1°F0.6°C 26.7°F-2.9°C 77% 3.0 mph S4.8 kmh S 11.0 mph17.7 kmh 29.51 in999.3 mb 0.00 in0.0 mm 0.00 in0.0 mm 0.00 in0.0 mm
05:08 AM 33.0°F0.6°C 26.6°F-3.0°C 77% 7.0 mph S11.3 kmh S 11.0 mph17.7 kmh 29.52 in999.7 mb 0.00 in0.0 mm 0.00 in0.0 mm 0.00 in0.0 mm
05:03 AM 32.9°F0.5°C 26.5°F-3.1°C 77% 2.0 mph SE3.2 kmh SE 12.0 mph19.3 kmh 29.52 in999.7 mb 0.00 in0.0 mm 0.00 in0.0 mm 0.00 in0.0 mm
04:58 AM 32.9°F0.5°C 26.5°F-3.1°C 77% 5.0 mph S8.0 kmh S 12.0 mph19.3 kmh 29.52 in999.7 mb 0.00 in0.0 mm 0.00 in0.0 mm 0.00 in0.0 mm
04:53 AM 32.8°F0.4°C 26.1°F-3.3°C 76% 5.0 mph S8.0 kmh S 12.0 mph19.3 kmh 29.53 in1000.0 mb 0.00 in0.0 mm 0.00 in0.0 mm 0.00 in0.0 mm
04:48 AM 32.8°F0.4°C 26.4°F-3.1°C 77% 6.0 mph SW9.7 kmh SW 12.0 mph19.3 kmh 29.53 in1000.0 mb 0.00 in0.0 mm 0.00 in0.0 mm 0.00 in0.0 mm
04:43 AM 32.7°F0.4°C 26.3°F-3.2°C 77% 7.0 mph S11.3 kmh S 11.0 mph17.7 kmh 29.53 in1000.0 mb 0.00 in0.0 mm 0.00 in0.0 mm 0.00 in0.0 mm
04:38 AM 32.7°F0.4°C 26.3°F-3.2°C 77% 4.0 mph SSW6.4 kmh SSW 11.0 mph17.7 kmh 29.53 in1000.0 mb 0.00 in0.0 mm 0.00 in0.0 mm 0.00 in0.0 mm
04:33 AM 32.5°F0.3°C 26.1°F-3.3°C 77% 4.0 mph SSW6.4 kmh SSW 9.0 mph14.5 kmh 29.53 in1000.0 mb 0.00 in0.0 mm 0.00 in0.0 mm 0.00 in0.0 mm
04:28 AM 32.5°F0.3°C 26.1°F-3.3°C 77% 5.0 mph SSE8.0 kmh SSE 9.0 mph14.5 kmh 29.53 in1000.0 mb 0.00 in0.0 mm 0.00 in0.0 mm 0.00 in0.0 mm
04:23 AM 32.5°F0.3°C 26.1°F-3.3°C 77% 8.0 mph S12.9 kmh S 9.0 mph14.5 kmh 29.54 in1000.3 mb 0.00 in0.0 mm 0.00 in0.0 mm 0.00 in0.0 mm
04:18 AM 32.5°F0.3°C 26.1°F-3.3°C 77% 3.0 mph S4.8 kmh S 13.0 mph20.9 kmh 29.54 in1000.3 mb 0.00 in0.0 mm 0.00 in0.0 mm 0.00 in0.0 mm
04:13 AM 32.5°F0.3°C 26.1°F-3.3°C 77% 3.0 mph S4.8 kmh S 13.0 mph20.9 kmh 29.54 in1000.3 mb 0.00 in0.0 mm 0.00 in0.0 mm 0.00 in0.0 mm
04:08 AM 32.4°F0.2°C 26.0°F-3.3°C 77% 2.0 mph S3.2 kmh S 13.0 mph20.9 kmh 29.55 in1000.7 mb 0.00 in0.0 mm 0.00 in0.0 mm 0.00 in0.0 mm
04:03 AM 32.4°F0.2°C 26.0°F-3.3°C 77% 7.0 mph S11.3 kmh S 13.0 mph20.9 kmh 29.55 in1000.7 mb 0.00 in0.0 mm 0.00 in0.0 mm 0.00 in0.0 mm
03:58 AM 32.3°F0.2°C 25.9°F-3.4°C 77% 4.0 mph SSW6.4 kmh SSW 10.0 mph16.1 kmh 29.55 in1000.7 mb 0.00 in0.0 mm 0.00 in0.0 mm 0.00 in0.0 mm
03:53 AM 32.3°F0.2°C 25.9°F-3.4°C 77% 5.0 mph SSE8.0 kmh SSE 8.0 mph12.9 kmh 29.55 in1000.7 mb 0.00 in0.0 mm 0.00 in0.0 mm 0.00 in0.0 mm
03:48 AM 32.3°F0.2°C 25.9°F-3.4°C 77% 3.0 mph S4.8 kmh S 8.0 mph12.9 kmh 29.55 in1000.7 mb 0.00 in0.0 mm 0.00 in0.0 mm 0.00 in0.0 mm
03:43 AM 32.4°F0.2°C 26.0°F-3.3°C 77% 4.0 mph S6.4 kmh S 7.0 mph11.3 kmh 29.56 in1001.0 mb 0.00 in0.0 mm 0.00 in0.0 mm 0.00 in0.0 mm
03:38 AM 32.5°F0.3°C 26.1°F-3.3°C 77% 3.0 mph SSW4.8 kmh SSW 7.0 mph11.3 kmh 29.56 in1001.0 mb 0.00 in0.0 mm 0.00 in0.0 mm 0.00 in0.0 mm
03:33 AM 32.6°F0.3°C 26.2°F-3.2°C 77% 2.0 mph S3.2 kmh S 7.0 mph11.3 kmh 29.56 in1001.0 mb 0.00 in0.0 mm 0.00 in0.0 mm 0.00 in0.0 mm
03:28 AM 32.8°F0.4°C 26.4°F-3.1°C 77% 4.0 mph S6.4 kmh S 8.0 mph12.9 kmh 29.56 in1001.0 mb 0.00 in0.0 mm 0.00 in0.0 mm 0.00 in0.0 mm
03:23 AM 32.7°F0.4°C 26.3°F-3.2°C 77% 3.0 mph SSW4.8 kmh SSW 8.0 mph12.9 kmh 29.57 in1001.4 mb 0.00 in0.0 mm 0.00 in0.0 mm 0.00 in0.0 mm
03:18 AM 32.8°F0.4°C 26.4°F-3.1°C 77% 6.0 mph SW9.7 kmh SW 8.0 mph12.9 kmh 29.57 in1001.4 mb 0.00 in0.0 mm 0.00 in0.0 mm 0.00 in0.0 mm
03:13 AM 32.9°F0.5°C 26.5°F-3.1°C 77% 2.0 mph S3.2 kmh S 8.0 mph12.9 kmh 29.57 in1001.4 mb 0.00 in0.0 mm 0.00 in0.0 mm 0.00 in0.0 mm
03:08 AM 32.9°F0.5°C 26.5°F-3.1°C 77% 1.0 mph SSW1.6 kmh SSW 8.0 mph12.9 kmh 29.57 in1001.4 mb 0.00 in0.0 mm 0.00 in0.0 mm 0.00 in0.0 mm
03:03 AM 32.9°F0.5°C 26.5°F-3.1°C 77% 2.0 mph SW3.2 kmh SW 8.0 mph12.9 kmh 29.57 in1001.4 mb 0.00 in0.0 mm 0.00 in0.0 mm 0.00 in0.0 mm
02:58 AM 33.0°F0.6°C 26.6°F-3.0°C 77% 4.0 mph SSE6.4 kmh SSE 8.0 mph12.9 kmh 29.57 in1001.4 mb 0.00 in0.0 mm 0.00 in0.0 mm 0.00 in0.0 mm
02:53 AM 33.0°F0.6°C 26.6°F-3.0°C 77% 3.0 mph S4.8 kmh S 8.0 mph12.9 kmh 29.57 in1001.4 mb 0.00 in0.0 mm 0.00 in0.0 mm 0.00 in0.0 mm
02:48 AM 33.0°F0.6°C 26.6°F-3.0°C 77% 3.0 mph S4.8 kmh S 8.0 mph12.9 kmh 29.58 in1001.7 mb 0.00 in0.0 mm 0.00 in0.0 mm 0.00 in0.0 mm
02:43 AM 32.9°F0.5°C 26.5°F-3.1°C 77% 6.0 mph S9.7 kmh S 8.0 mph12.9 kmh 29.58 in1001.7 mb 0.00 in0.0 mm 0.00 in0.0 mm 0.00 in0.0 mm
02:38 AM 32.9°F0.5°C 26.5°F-3.1°C 77% 5.0 mph S8.0 kmh S 8.0 mph12.9 kmh 29.58 in1001.7 mb 0.00 in0.0 mm 0.00 in0.0 mm 0.00 in0.0 mm
02:33 AM 32.8°F0.4°C 26.4°F-3.1°C 77% 2.0 mph S3.2 kmh S 8.0 mph12.9 kmh 29.59 in1002.0 mb 0.00 in0.0 mm 0.00 in0.0 mm 0.00 in0.0 mm
02:28 AM 32.9°F0.5°C 26.5°F-3.1°C 77% 3.0 mph SW4.8 kmh SW 6.0 mph9.7 kmh 29.59 in1002.0 mb 0.00 in0.0 mm 0.00 in0.0 mm 0.00 in0.0 mm
02:23 AM 32.8°F0.4°C 26.7°F-2.9°C 78% 1.0 mph S1.6 kmh S 6.0 mph9.7 kmh 29.59 in1002.0 mb 0.00 in0.0 mm 0.00 in0.0 mm 0.00 in0.0 mm
02:18 AM 32.8°F0.4°C 26.4°F-3.1°C 77% 3.0 mph S4.8 kmh S 6.0 mph9.7 kmh 29.59 in1002.0 mb 0.00 in0.0 mm 0.00 in0.0 mm 0.00 in0.0 mm
02:13 AM 32.7°F0.4°C 26.3°F-3.2°C 77% 2.0 mph SSW3.2 kmh SSW 7.0 mph11.3 kmh 29.59 in1002.0 mb 0.00 in0.0 mm 0.00 in0.0 mm 0.00 in0.0 mm
02:08 AM 32.7°F0.4°C 26.3°F-3.2°C 77% 3.0 mph SW4.8 kmh SW 7.0 mph11.3 kmh 29.59 in1002.0 mb 0.00 in0.0 mm 0.00 in0.0 mm 0.00 in0.0 mm
02:03 AM 32.7°F0.4°C 26.3°F-3.2°C 77% 2.0 mph SSW3.2 kmh SSW 7.0 mph11.3 kmh 29.59 in1002.0 mb 0.00 in0.0 mm 0.00 in0.0 mm 0.00 in0.0 mm
01:58 AM 32.5°F0.3°C 26.1°F-3.3°C 77% 2.0 mph SW3.2 kmh SW 7.0 mph11.3 kmh 29.59 in1002.0 mb 0.00 in0.0 mm 0.00 in0.0 mm 0.00 in0.0 mm
01:53 AM 32.4°F0.2°C 26.0°F-3.3°C 77% 2.0 mph WSW3.2 kmh WSW 6.0 mph9.7 kmh 29.59 in1002.0 mb 0.00 in0.0 mm 0.00 in0.0 mm 0.00 in0.0 mm
01:48 AM 32.6°F0.3°C 26.2°F-3.2°C 77% 3.0 mph WSW4.8 kmh WSW 6.0 mph9.7 kmh 29.60 in1002.4 mb 0.00 in0.0 mm 0.00 in0.0 mm 0.00 in0.0 mm
01:43 AM 32.8°F0.4°C 26.4°F-3.1°C 77% 3.0 mph SW4.8 kmh SW 5.0 mph8.0 kmh 29.60 in1002.4 mb 0.00 in0.0 mm 0.00 in0.0 mm 0.00 in0.0 mm
01:38 AM 32.9°F0.5°C 26.5°F-3.1°C 77% 2.0 mph S3.2 kmh S 5.0 mph8.0 kmh 29.59 in1002.0 mb 0.00 in0.0 mm 0.00 in0.0 mm 0.00 in0.0 mm
01:33 AM 33.0°F0.6°C 26.6°F-3.0°C 77% 2.0 mph S3.2 kmh S 6.0 mph9.7 kmh 29.59 in1002.0 mb 0.00 in0.0 mm 0.00 in0.0 mm 0.00 in0.0 mm
01:28 AM 33.1°F0.6°C 26.7°F-2.9°C 77% 1.0 mph S1.6 kmh S 6.0 mph9.7 kmh 29.59 in1002.0 mb 0.00 in0.0 mm 0.00 in0.0 mm 0.00 in0.0 mm
01:23 AM 33.1°F0.6°C 26.7°F-2.9°C 77% 3.0 mph SSW4.8 kmh SSW 6.0 mph9.7 kmh 29.59 in1002.0 mb 0.00 in0.0 mm 0.00 in0.0 mm 0.00 in0.0 mm
01:18 AM 33.2°F0.7°C 26.8°F-2.9°C 77% 2.0 mph S3.2 kmh S 6.0 mph9.7 kmh 29.59 in1002.0 mb 0.00 in0.0 mm 0.00 in0.0 mm 0.00 in0.0 mm
01:13 AM 33.1°F0.6°C 26.7°F-2.9°C 77% Calm Calm 5.0 mph8.0 kmh 29.59 in1002.0 mb 0.00 in0.0 mm 0.00 in0.0 mm 0.00 in0.0 mm
01:08 AM 33.1°F0.6°C 26.7°F-2.9°C 77% 3.0 mph SSW4.8 kmh SSW 5.0 mph8.0 kmh 29.60 in1002.4 mb 0.00 in0.0 mm 0.00 in0.0 mm 0.00 in0.0 mm
01:03 AM 33.2°F0.7°C 26.8°F-2.9°C 77% 3.0 mph SW4.8 kmh SW 6.0 mph9.7 kmh 29.60 in1002.4 mb 0.00 in0.0 mm 0.00 in0.0 mm 0.00 in0.0 mm
12:58 AM 33.3°F0.7°C 26.9°F-2.8°C 77% 2.0 mph SW3.2 kmh SW 6.0 mph9.7 kmh 29.60 in1002.4 mb 0.00 in0.0 mm 0.00 in0.0 mm 0.00 in0.0 mm
12:53 AM 33.4°F0.8°C 27.0°F-2.8°C 77% 3.0 mph SW4.8 kmh SW 7.0 mph11.3 kmh 29.60 in1002.4 mb 0.00 in0.0 mm 0.00 in0.0 mm 0.00 in0.0 mm
12:48 AM 33.4°F0.8°C 27.0°F-2.8°C 77% 5.0 mph SSW8.0 kmh SSW 7.0 mph11.3 kmh 29.60 in1002.4 mb 0.00 in0.0 mm 0.00 in0.0 mm 0.00 in0.0 mm
12:43 AM 33.4°F0.8°C 27.0°F-2.8°C 77% 4.0 mph SW6.4 kmh SW 7.0 mph11.3 kmh 29.60 in1002.4 mb 0.00 in0.0 mm 0.00 in0.0 mm 0.00 in0.0 mm
12:38 AM 33.4°F0.8°C 27.0°F-2.8°C 77% 1.0 mph SW1.6 kmh SW 7.0 mph11.3 kmh 29.61 in1002.7 mb 0.00 in0.0 mm 0.00 in0.0 mm 0.00 in0.0 mm
12:33 AM 33.4°F0.8°C 27.0°F-2.8°C 77% 2.0 mph SW3.2 kmh SW 7.0 mph11.3 kmh 29.61 in1002.7 mb 0.00 in0.0 mm 0.00 in0.0 mm 0.00 in0.0 mm
12:28 AM 33.4°F0.8°C 27.0°F-2.8°C 77% 2.0 mph SW3.2 kmh SW 7.0 mph11.3 kmh 29.61 in1002.7 mb 0.00 in0.0 mm 0.00 in0.0 mm 0.00 in0.0 mm
12:23 AM 33.5°F0.8°C 27.1°F-2.7°C 77% 4.0 mph SW6.4 kmh SW 7.0 mph11.3 kmh 29.61 in1002.7 mb 0.00 in0.0 mm 0.00 in0.0 mm 0.00 in0.0 mm
12:18 AM 33.6°F0.9°C 27.2°F-2.7°C 77% 1.0 mph SW1.6 kmh SW 6.0 mph9.7 kmh 29.61 in1002.7 mb 0.00 in0.0 mm 0.00 in0.0 mm 0.00 in0.0 mm
12:13 AM 33.8°F1.0°C 27.4°F-2.6°C 77% 1.0 mph SW1.6 kmh SW 7.0 mph11.3 kmh 29.61 in1002.7 mb 0.00 in0.0 mm 0.00 in0.0 mm 0.00 in0.0 mm
12:08 AM 33.9°F1.1°C 27.5°F-2.5°C 77% 3.0 mph SW4.8 kmh SW 7.0 mph11.3 kmh 29.61 in1002.7 mb 0.00 in0.0 mm 0.00 in0.0 mm 0.00 in0.0 mm
12:03 AM 34.1°F1.2°C 27.7°F-2.4°C 77% 1.0 mph SW1.6 kmh SW 9.0 mph14.5 kmh 29.61 in1002.7 mb 0.00 in0.0 mm 0.00 in0.0 mm 0.00 in0.0 mm